sensor_id;sensor_type;location;lat;lon;timestamp;P1;durP1;ratioP1;P2;durP2;ratioP2
77872;SDS011;67068;52.116;4.440;2023-04-08T00:00:17;9.90;;;2.97;;
77872;SDS011;67068;52.116;4.440;2023-04-08T00:02:42;8.97;;;2.87;;
77872;SDS011;67068;52.116;4.440;2023-04-08T00:05:07;9.20;;;2.97;;
77872;SDS011;67068;52.116;4.440;2023-04-08T00:07:33;8.45;;;3.00;;
77872;SDS011;67068;52.116;4.440;2023-04-08T00:09:58;9.02;;;2.88;;
77872;SDS011;67068;52.116;4.440;2023-04-08T00:12:24;8.87;;;3.40;;
77872;SDS011;67068;52.116;4.440;2023-04-08T00:14:49;8.70;;;3.17;;
77872;SDS011;67068;52.116;4.440;2023-04-08T00:17:14;7.97;;;2.77;;
77872;SDS011;67068;52.116;4.440;2023-04-08T00:19:39;9.67;;;3.67;;
77872;SDS011;67068;52.116;4.440;2023-04-08T00:22:05;8.52;;;3.10;;
77872;SDS011;67068;52.116;4.440;2023-04-08T00:24:31;8.63;;;3.40;;
77872;SDS011;67068;52.116;4.440;2023-04-08T00:26:56;9.13;;;3.30;;
77872;SDS011;67068;52.116;4.440;2023-04-08T00:29:22;8.27;;;3.10;;
77872;SDS011;67068;52.116;4.440;2023-04-08T00:31:47;9.43;;;3.83;;
77872;SDS011;67068;52.116;4.440;2023-04-08T00:34:12;9.52;;;3.45;;
77872;SDS011;67068;52.116;4.440;2023-04-08T00:36:37;10.07;;;3.27;;
77872;SDS011;67068;52.116;4.440;2023-04-08T00:39:03;8.93;;;3.63;;
77872;SDS011;67068;52.116;4.440;2023-04-08T00:41:30;12.15;;;3.42;;
77872;SDS011;67068;52.116;4.440;2023-04-08T00:43:55;10.53;;;3.53;;
77872;SDS011;67068;52.116;4.440;2023-04-08T00:46:21;8.97;;;3.60;;
77872;SDS011;67068;52.116;4.440;2023-04-08T00:48:46;10.63;;;3.80;;
77872;SDS011;67068;52.116;4.440;2023-04-08T00:51:11;9.17;;;3.43;;
77872;SDS011;67068;52.116;4.440;2023-04-08T00:53:37;9.90;;;3.72;;
77872;SDS011;67068;52.116;4.440;2023-04-08T00:56:02;9.27;;;3.30;;
77872;SDS011;67068;52.116;4.440;2023-04-08T00:58:27;9.77;;;3.92;;
77872;SDS011;67068;52.116;4.440;2023-04-08T01:00:56;10.65;;;4.55;;
77872;SDS011;67068;52.116;4.440;2023-04-08T01:06:21;10.18;;;3.40;;
77872;SDS011;67068;52.116;4.440;2023-04-08T01:08:50;10.00;;;4.22;;
77872;SDS011;67068;52.116;4.440;2023-04-08T01:11:16;9.57;;;3.63;;
77872;SDS011;67068;52.116;4.440;2023-04-08T01:13:41;9.73;;;3.60;;
77872;SDS011;67068;52.116;4.440;2023-04-08T01:16:09;10.70;;;3.97;;
77872;SDS011;67068;52.116;4.440;2023-04-08T01:18:35;10.25;;;3.75;;
77872;SDS011;67068;52.116;4.440;2023-04-08T01:21:01;10.65;;;3.60;;
77872;SDS011;67068;52.116;4.440;2023-04-08T01:23:43;10.73;;;4.22;;
77872;SDS011;67068;52.116;4.440;2023-04-08T01:26:11;10.60;;;4.32;;
77872;SDS011;67068;52.116;4.440;2023-04-08T01:28:37;9.57;;;3.55;;
77872;SDS011;67068;52.116;4.440;2023-04-08T01:31:03;9.55;;;3.35;;
77872;SDS011;67068;52.116;4.440;2023-04-08T01:33:28;10.82;;;4.28;;
77872;SDS011;67068;52.116;4.440;2023-04-08T01:35:55;11.68;;;4.28;;
77872;SDS011;67068;52.116;4.440;2023-04-08T01:38:22;10.60;;;3.92;;
77872;SDS011;67068;52.116;4.440;2023-04-08T01:40:48;10.25;;;3.95;;
77872;SDS011;67068;52.116;4.440;2023-04-08T01:43:15;9.88;;;3.90;;
77872;SDS011;67068;52.116;4.440;2023-04-08T01:45:44;12.93;;;5.53;;
77872;SDS011;67068;52.116;4.440;2023-04-08T01:48:09;11.80;;;4.60;;
77872;SDS011;67068;52.116;4.440;2023-04-08T01:50:36;10.57;;;4.22;;
77872;SDS011;67068;52.116;4.440;2023-04-08T01:53:02;10.20;;;4.18;;
77872;SDS011;67068;52.116;4.440;2023-04-08T01:55:28;9.95;;;4.07;;
77872;SDS011;67068;52.116;4.440;2023-04-08T01:57:54;9.50;;;3.85;;
77872;SDS011;67068;52.116;4.440;2023-04-08T02:00:22;9.55;;;4.00;;
77872;SDS011;67068;52.116;4.440;2023-04-08T02:02:48;10.05;;;4.30;;
77872;SDS011;67068;52.116;4.440;2023-04-08T02:05:13;11.07;;;3.53;;
77872;SDS011;67068;52.116;4.440;2023-04-08T02:07:39;11.55;;;4.40;;
77872;SDS011;67068;52.116;4.440;2023-04-08T02:10:04;11.13;;;4.50;;
77872;SDS011;67068;52.116;4.440;2023-04-08T02:12:30;11.55;;;4.55;;
77872;SDS011;67068;52.116;4.440;2023-04-08T02:14:56;10.77;;;4.20;;
77872;SDS011;67068;52.116;4.440;2023-04-08T02:17:24;10.07;;;4.28;;
77872;SDS011;67068;52.116;4.440;2023-04-08T02:22:24;12.00;;;4.38;;
77872;SDS011;67068;52.116;4.440;2023-04-08T02:24:52;9.50;;;3.63;;
77872;SDS011;67068;52.116;4.440;2023-04-08T02:27:17;11.07;;;4.20;;
77872;SDS011;67068;52.116;4.440;2023-04-08T02:29:43;10.13;;;4.30;;
77872;SDS011;67068;52.116;4.440;2023-04-08T02:32:09;10.07;;;4.00;;
77872;SDS011;67068;52.116;4.440;2023-04-08T02:34:36;10.38;;;4.38;;
77872;SDS011;67068;52.116;4.440;2023-04-08T02:37:03;10.52;;;4.25;;
77872;SDS011;67068;52.116;4.440;2023-04-08T02:39:31;9.90;;;3.93;;
77872;SDS011;67068;52.116;4.440;2023-04-08T02:41:56;10.00;;;4.10;;
77872;SDS011;67068;52.116;4.440;2023-04-08T02:44:22;10.43;;;4.37;;
77872;SDS011;67068;52.116;4.440;2023-04-08T02:46:47;10.32;;;4.10;;
77872;SDS011;67068;52.116;4.440;2023-04-08T02:49:12;10.30;;;4.10;;
77872;SDS011;67068;52.116;4.440;2023-04-08T02:51:38;11.40;;;4.20;;
77872;SDS011;67068;52.116;4.440;2023-04-08T02:54:03;11.00;;;4.50;;
77872;SDS011;67068;52.116;4.440;2023-04-08T02:56:28;9.67;;;3.90;;
77872;SDS011;67068;52.116;4.440;2023-04-08T02:58:53;11.30;;;4.57;;
77872;SDS011;67068;52.116;4.440;2023-04-08T03:01:19;10.82;;;4.05;;
77872;SDS011;67068;52.116;4.440;2023-04-08T03:03:44;10.07;;;3.90;;
77872;SDS011;67068;52.116;4.440;2023-04-08T03:06:09;10.53;;;4.07;;
77872;SDS011;67068;52.116;4.440;2023-04-08T03:08:35;10.50;;;3.97;;
77872;SDS011;67068;52.116;4.440;2023-04-08T03:11:00;10.37;;;4.20;;
77872;SDS011;67068;52.116;4.440;2023-04-08T03:13:25;10.30;;;3.97;;
77872;SDS011;67068;52.116;4.440;2023-04-08T03:15:51;11.03;;;4.20;;
77872;SDS011;67068;52.116;4.440;2023-04-08T03:18:16;9.80;;;4.07;;
77872;SDS011;67068;52.116;4.440;2023-04-08T03:20:41;11.88;;;4.75;;
77872;SDS011;67068;52.116;4.440;2023-04-08T03:23:07;11.63;;;4.90;;
77872;SDS011;67068;52.116;4.440;2023-04-08T03:25:32;10.07;;;4.33;;
77872;SDS011;67068;52.116;4.440;2023-04-08T03:27:57;10.93;;;4.37;;
77872;SDS011;67068;52.116;4.440;2023-04-08T03:30:22;10.80;;;4.30;;
77872;SDS011;67068;52.116;4.440;2023-04-08T03:32:48;11.30;;;4.57;;
77872;SDS011;67068;52.116;4.440;2023-04-08T03:35:13;11.37;;;4.47;;
77872;SDS011;67068;52.116;4.440;2023-04-08T03:37:38;9.63;;;4.00;;
77872;SDS011;67068;52.116;4.440;2023-04-08T03:40:03;10.40;;;3.97;;
77872;SDS011;67068;52.116;4.440;2023-04-08T03:42:29;10.85;;;4.35;;
77872;SDS011;67068;52.116;4.440;2023-04-08T03:44:54;11.03;;;4.10;;
77872;SDS011;67068;52.116;4.440;2023-04-08T03:47:19;11.03;;;4.47;;
77872;SDS011;67068;52.116;4.440;2023-04-08T03:49:44;11.25;;;4.78;;
77872;SDS011;67068;52.116;4.440;2023-04-08T03:52:10;10.03;;;3.97;;
77872;SDS011;67068;52.116;4.440;2023-04-08T03:54:35;10.68;;;4.35;;
77872;SDS011;67068;52.116;4.440;2023-04-08T03:57:00;11.70;;;4.70;;
77872;SDS011;67068;52.116;4.440;2023-04-08T03:59:26;10.80;;;4.50;;
77872;SDS011;67068;52.116;4.440;2023-04-08T04:01:51;10.40;;;4.17;;
77872;SDS011;67068;52.116;4.440;2023-04-08T04:04:17;10.32;;;4.40;;
77872;SDS011;67068;52.116;4.440;2023-04-08T04:06:42;10.38;;;4.25;;
77872;SDS011;67068;52.116;4.440;2023-04-08T04:09:08;10.27;;;4.17;;
77872;SDS011;67068;52.116;4.440;2023-04-08T04:11:33;11.52;;;4.78;;
77872;SDS011;67068;52.116;4.440;2023-04-08T04:13:59;9.27;;;3.67;;
77872;SDS011;67068;52.116;4.440;2023-04-08T04:16:24;10.50;;;4.17;;
77872;SDS011;67068;52.116;4.440;2023-04-08T04:18:51;10.87;;;4.20;;
77872;SDS011;67068;52.116;4.440;2023-04-08T04:21:16;9.98;;;3.67;;
77872;SDS011;67068;52.116;4.440;2023-04-08T04:23:41;10.37;;;4.10;;
77872;SDS011;67068;52.116;4.440;2023-04-08T04:26:09;10.27;;;3.90;;
77872;SDS011;67068;52.116;4.440;2023-04-08T04:28:35;10.25;;;4.05;;
77872;SDS011;67068;52.116;4.440;2023-04-08T04:31:00;9.93;;;4.05;;
77872;SDS011;67068;52.116;4.440;2023-04-08T04:33:25;9.87;;;3.83;;
77872;SDS011;67068;52.116;4.440;2023-04-08T04:35:51;11.52;;;4.63;;
77872;SDS011;67068;52.116;4.440;2023-04-08T04:38:16;9.80;;;3.77;;
77872;SDS011;67068;52.116;4.440;2023-04-08T04:40:41;9.53;;;3.70;;
77872;SDS011;67068;52.116;4.440;2023-04-08T04:43:09;9.38;;;3.95;;
77872;SDS011;67068;52.116;4.440;2023-04-08T04:45:34;11.18;;;4.72;;
77872;SDS011;67068;52.116;4.440;2023-04-08T04:48:00;9.67;;;3.30;;
77872;SDS011;67068;52.116;4.440;2023-04-08T04:50:25;10.40;;;4.20;;
77872;SDS011;67068;52.116;4.440;2023-04-08T04:52:51;9.35;;;3.70;;
77872;SDS011;67068;52.116;4.440;2023-04-08T04:55:16;9.97;;;4.10;;
77872;SDS011;67068;52.116;4.440;2023-04-08T04:57:41;10.13;;;3.57;;
77872;SDS011;67068;52.116;4.440;2023-04-08T05:00:08;10.25;;;4.05;;
77872;SDS011;67068;52.116;4.440;2023-04-08T05:02:34;10.60;;;4.00;;
77872;SDS011;67068;52.116;4.440;2023-04-08T05:04:59;10.97;;;4.47;;
77872;SDS011;67068;52.116;4.440;2023-04-08T05:07:24;10.38;;;4.28;;
77872;SDS011;67068;52.116;4.440;2023-04-08T05:09:50;10.87;;;4.40;;
77872;SDS011;67068;52.116;4.440;2023-04-08T05:12:15;10.68;;;4.43;;
77872;SDS011;67068;52.116;4.440;2023-04-08T05:14:40;10.70;;;4.50;;
77872;SDS011;67068;52.116;4.440;2023-04-08T05:17:06;10.93;;;4.70;;
77872;SDS011;67068;52.116;4.440;2023-04-08T05:19:31;12.00;;;4.30;;
77872;SDS011;67068;52.116;4.440;2023-04-08T05:21:56;10.30;;;4.40;;
77872;SDS011;67068;52.116;4.440;2023-04-08T05:24:21;11.27;;;4.50;;
77872;SDS011;67068;52.116;4.440;2023-04-08T05:26:47;12.77;;;5.67;;
77872;SDS011;67068;52.116;4.440;2023-04-08T05:29:16;12.10;;;5.43;;
77872;SDS011;67068;52.116;4.440;2023-04-08T05:31:42;12.65;;;5.15;;
77872;SDS011;67068;52.116;4.440;2023-04-08T05:34:07;12.57;;;5.27;;
77872;SDS011;67068;52.116;4.440;2023-04-08T05:36:32;11.93;;;5.43;;
77872;SDS011;67068;52.116;4.440;2023-04-08T05:38:57;13.03;;;5.50;;
77872;SDS011;67068;52.116;4.440;2023-04-08T05:41:23;11.73;;;5.20;;
77872;SDS011;67068;52.116;4.440;2023-04-08T05:43:48;13.23;;;5.18;;
77872;SDS011;67068;52.116;4.440;2023-04-08T05:46:13;13.63;;;5.97;;
77872;SDS011;67068;52.116;4.440;2023-04-08T05:48:38;12.70;;;5.90;;
77872;SDS011;67068;52.116;4.440;2023-04-08T05:51:04;12.95;;;5.45;;
77872;SDS011;67068;52.116;4.440;2023-04-08T05:53:29;11.90;;;5.00;;
77872;SDS011;67068;52.116;4.440;2023-04-08T05:55:54;13.23;;;6.13;;
77872;SDS011;67068;52.116;4.440;2023-04-08T05:58:20;12.90;;;5.72;;
77872;SDS011;67068;52.116;4.440;2023-04-08T06:00:45;12.87;;;5.50;;
77872;SDS011;67068;52.116;4.440;2023-04-08T06:03:10;11.63;;;5.43;;
77872;SDS011;67068;52.116;4.440;2023-04-08T06:05:35;13.30;;;6.03;;
77872;SDS011;67068;52.116;4.440;2023-04-08T06:08:00;13.10;;;5.97;;
77872;SDS011;67068;52.116;4.440;2023-04-08T06:10:26;12.70;;;5.57;;
77872;SDS011;67068;52.116;4.440;2023-04-08T06:12:51;12.37;;;5.73;;
77872;SDS011;67068;52.116;4.440;2023-04-08T06:15:16;12.67;;;5.43;;
77872;SDS011;67068;52.116;4.440;2023-04-08T06:17:41;12.60;;;5.60;;
77872;SDS011;67068;52.116;4.440;2023-04-08T06:20:07;14.10;;;5.87;;
77872;SDS011;67068;52.116;4.440;2023-04-08T06:22:35;13.43;;;6.18;;
77872;SDS011;67068;52.116;4.440;2023-04-08T06:25:01;11.98;;;5.30;;
77872;SDS011;67068;52.116;4.440;2023-04-08T06:27:27;12.93;;;5.83;;
77872;SDS011;67068;52.116;4.440;2023-04-08T06:29:52;13.35;;;5.65;;
77872;SDS011;67068;52.116;4.440;2023-04-08T06:32:17;12.07;;;4.90;;
77872;SDS011;67068;52.116;4.440;2023-04-08T06:34:46;12.93;;;5.95;;
77872;SDS011;67068;52.116;4.440;2023-04-08T06:37:11;11.80;;;5.50;;
77872;SDS011;67068;52.116;4.440;2023-04-08T06:39:37;13.57;;;5.55;;
77872;SDS011;67068;52.116;4.440;2023-04-08T06:42:02;12.60;;;5.20;;
77872;SDS011;67068;52.116;4.440;2023-04-08T06:44:27;12.30;;;5.37;;
77872;SDS011;67068;52.116;4.440;2023-04-08T06:46:53;12.60;;;5.28;;
77872;SDS011;67068;52.116;4.440;2023-04-08T06:49:18;12.80;;;5.73;;
77872;SDS011;67068;52.116;4.440;2023-04-08T06:51:43;11.73;;;4.93;;
77872;SDS011;67068;52.116;4.440;2023-04-08T06:54:08;12.23;;;5.47;;
77872;SDS011;67068;52.116;4.440;2023-04-08T06:56:36;12.63;;;5.38;;
77872;SDS011;67068;52.116;4.440;2023-04-08T06:59:02;12.47;;;5.87;;
77872;SDS011;67068;52.116;4.440;2023-04-08T07:01:28;11.90;;;5.20;;
77872;SDS011;67068;52.116;4.440;2023-04-08T07:03:53;12.07;;;5.97;;
77872;SDS011;67068;52.116;4.440;2023-04-08T07:06:18;12.20;;;5.93;;
77872;SDS011;67068;52.116;4.440;2023-04-08T07:08:44;12.70;;;5.45;;
77872;SDS011;67068;52.116;4.440;2023-04-08T07:11:09;11.60;;;5.20;;
77872;SDS011;67068;52.116;4.440;2023-04-08T07:13:35;11.75;;;5.47;;
77872;SDS011;67068;52.116;4.440;2023-04-08T07:16:00;11.80;;;6.33;;
77872;SDS011;67068;52.116;4.440;2023-04-08T07:18:25;11.37;;;5.27;;
77872;SDS011;67068;52.116;4.440;2023-04-08T07:20:51;11.80;;;5.73;;
77872;SDS011;67068;52.116;4.440;2023-04-08T07:23:20;11.10;;;5.40;;
77872;SDS011;67068;52.116;4.440;2023-04-08T07:25:46;11.98;;;5.65;;
77872;SDS011;67068;52.116;4.440;2023-04-08T07:28:11;11.68;;;5.75;;
77872;SDS011;67068;52.116;4.440;2023-04-08T07:30:37;10.27;;;5.17;;
77872;SDS011;67068;52.116;4.440;2023-04-08T07:33:02;10.97;;;5.13;;
77872;SDS011;67068;52.116;4.440;2023-04-08T07:35:27;12.02;;;5.75;;
77872;SDS011;67068;52.116;4.440;2023-04-08T07:37:53;11.30;;;5.07;;
77872;SDS011;67068;52.116;4.440;2023-04-08T07:40:19;12.15;;;5.95;;
77872;SDS011;67068;52.116;4.440;2023-04-08T07:42:44;11.43;;;5.53;;
77872;SDS011;67068;52.116;4.440;2023-04-08T07:45:10;11.73;;;5.50;;
77872;SDS011;67068;52.116;4.440;2023-04-08T07:47:35;10.98;;;4.88;;
77872;SDS011;67068;52.116;4.440;2023-04-08T07:50:01;11.38;;;5.07;;
77872;SDS011;67068;52.116;4.440;2023-04-08T07:52:26;11.70;;;5.00;;
77872;SDS011;67068;52.116;4.440;2023-04-08T07:54:51;11.07;;;5.30;;
77872;SDS011;67068;52.116;4.440;2023-04-08T07:57:17;12.00;;;5.28;;
77872;SDS011;67068;52.116;4.440;2023-04-08T07:59:42;10.60;;;4.77;;
77872;SDS011;67068;52.116;4.440;2023-04-08T08:02:07;10.77;;;5.07;;
77872;SDS011;67068;52.116;4.440;2023-04-08T08:04:32;11.70;;;5.30;;
77872;SDS011;67068;52.116;4.440;2023-04-08T08:06:58;10.50;;;4.63;;
77872;SDS011;67068;52.116;4.440;2023-04-08T08:09:23;12.03;;;5.93;;
77872;SDS011;67068;52.116;4.440;2023-04-08T08:11:48;11.00;;;5.37;;
77872;SDS011;67068;52.116;4.440;2023-04-08T08:14:13;11.17;;;4.93;;
77872;SDS011;67068;52.116;4.440;2023-04-08T08:16:39;10.55;;;5.00;;
77872;SDS011;67068;52.116;4.440;2023-04-08T08:19:05;10.68;;;4.85;;
77872;SDS011;67068;52.116;4.440;2023-04-08T08:21:31;10.60;;;4.93;;
77872;SDS011;67068;52.116;4.440;2023-04-08T08:23:57;10.18;;;4.50;;
77872;SDS011;67068;52.116;4.440;2023-04-08T08:26:23;9.95;;;4.65;;
77872;SDS011;67068;52.116;4.440;2023-04-08T08:28:49;9.43;;;4.45;;
77872;SDS011;67068;52.116;4.440;2023-04-08T08:31:14;9.77;;;4.73;;
77872;SDS011;67068;52.116;4.440;2023-04-08T08:33:39;10.30;;;4.68;;
77872;SDS011;67068;52.116;4.440;2023-04-08T08:36:05;10.50;;;4.85;;
77872;SDS011;67068;52.116;4.440;2023-04-08T08:38:31;10.23;;;4.53;;
77872;SDS011;67068;52.116;4.440;2023-04-08T08:40:56;10.07;;;4.78;;
77872;SDS011;67068;52.116;4.440;2023-04-08T08:43:26;10.60;;;4.68;;
77872;SDS011;67068;52.116;4.440;2023-04-08T08:45:51;9.88;;;4.57;;
77872;SDS011;67068;52.116;4.440;2023-04-08T08:48:17;9.57;;;4.20;;
77872;SDS011;67068;52.116;4.440;2023-04-08T08:50:42;10.25;;;5.00;;
77872;SDS011;67068;52.116;4.440;2023-04-08T08:53:08;9.38;;;4.22;;
77872;SDS011;67068;52.116;4.440;2023-04-08T08:55:33;10.20;;;4.53;;
77872;SDS011;67068;52.116;4.440;2023-04-08T08:57:59;8.80;;;3.80;;
77872;SDS011;67068;52.116;4.440;2023-04-08T09:00:35;9.52;;;3.95;;
77872;SDS011;67068;52.116;4.440;2023-04-08T09:03:17;9.48;;;4.18;;
77872;SDS011;67068;52.116;4.440;2023-04-08T09:05:50;9.23;;;4.25;;
77872;SDS011;67068;52.116;4.440;2023-04-08T09:08:31;8.98;;;3.97;;
77872;SDS011;67068;52.116;4.440;2023-04-08T09:11:16;9.23;;;3.88;;
77872;SDS011;67068;52.116;4.440;2023-04-08T09:13:41;9.00;;;4.03;;
77872;SDS011;67068;52.116;4.440;2023-04-08T09:16:08;8.50;;;3.70;;
77872;SDS011;67068;52.116;4.440;2023-04-08T09:18:34;8.70;;;4.00;;
77872;SDS011;67068;52.116;4.440;2023-04-08T09:20:59;7.97;;;3.45;;
77872;SDS011;67068;52.116;4.440;2023-04-08T09:26:22;7.90;;;3.25;;
77872;SDS011;67068;52.116;4.440;2023-04-08T09:31:26;8.73;;;3.40;;
77872;SDS011;67068;52.116;4.440;2023-04-08T09:33:56;8.27;;;3.58;;
77872;SDS011;67068;52.116;4.440;2023-04-08T09:36:22;8.82;;;3.72;;
77872;SDS011;67068;52.116;4.440;2023-04-08T09:38:47;8.18;;;3.33;;
77872;SDS011;67068;52.116;4.440;2023-04-08T09:41:13;8.95;;;3.92;;
77872;SDS011;67068;52.116;4.440;2023-04-08T09:43:56;8.10;;;3.55;;
77872;SDS011;67068;52.116;4.440;2023-04-08T09:46:26;8.57;;;3.53;;
77872;SDS011;67068;52.116;4.440;2023-04-08T09:49:04;8.30;;;3.50;;
77872;SDS011;67068;52.116;4.440;2023-04-08T09:51:39;8.88;;;4.15;;
77872;SDS011;67068;52.116;4.440;2023-04-08T09:54:06;8.43;;;3.92;;
77872;SDS011;67068;52.116;4.440;2023-04-08T09:56:40;8.90;;;3.83;;
77872;SDS011;67068;52.116;4.440;2023-04-08T09:59:15;8.77;;;3.72;;
77872;SDS011;67068;52.116;4.440;2023-04-08T10:01:49;8.77;;;3.40;;
77872;SDS011;67068;52.116;4.440;2023-04-08T10:04:15;8.55;;;3.75;;
77872;SDS011;67068;52.116;4.440;2023-04-08T10:06:42;8.65;;;3.80;;
77872;SDS011;67068;52.116;4.440;2023-04-08T10:09:07;7.80;;;3.47;;
77872;SDS011;67068;52.116;4.440;2023-04-08T10:11:34;8.35;;;3.42;;
77872;SDS011;67068;52.116;4.440;2023-04-08T10:14:00;7.80;;;3.45;;
77872;SDS011;67068;52.116;4.440;2023-04-08T10:16:25;7.80;;;3.17;;
77872;SDS011;67068;52.116;4.440;2023-04-08T10:18:52;7.30;;;2.90;;
77872;SDS011;67068;52.116;4.440;2023-04-08T10:24:01;7.65;;;3.42;;
77872;SDS011;67068;52.116;4.440;2023-04-08T10:26:45;7.28;;;3.00;;
77872;SDS011;67068;52.116;4.440;2023-04-08T10:31:45;7.38;;;3.13;;
77872;SDS011;67068;52.116;4.440;2023-04-08T10:34:18;7.07;;;2.75;;
77872;SDS011;67068;52.116;4.440;2023-04-08T10:36:46;7.10;;;2.80;;
77872;SDS011;67068;52.116;4.440;2023-04-08T10:39:13;7.53;;;2.97;;
77872;SDS011;67068;52.116;4.440;2023-04-08T10:41:42;7.35;;;3.28;;
77872;SDS011;67068;52.116;4.440;2023-04-08T10:49:31;10.27;;;4.75;;
77872;SDS011;67068;52.116;4.440;2023-04-08T10:51:57;9.02;;;4.03;;
77872;SDS011;67068;52.116;4.440;2023-04-08T10:54:22;8.40;;;3.87;;
77872;SDS011;67068;52.116;4.440;2023-04-08T10:56:53;9.10;;;3.97;;
77872;SDS011;67068;52.116;4.440;2023-04-08T10:59:28;9.83;;;3.87;;
77872;SDS011;67068;52.116;4.440;2023-04-08T11:01:54;8.82;;;3.72;;
77872;SDS011;67068;52.116;4.440;2023-04-08T11:04:19;9.23;;;3.87;;
77872;SDS011;67068;52.116;4.440;2023-04-08T11:06:47;9.30;;;3.67;;
77872;SDS011;67068;52.116;4.440;2023-04-08T11:09:13;13.15;;;5.75;;
77872;SDS011;67068;52.116;4.440;2023-04-08T11:11:42;10.85;;;5.00;;
77872;SDS011;67068;52.116;4.440;2023-04-08T11:14:07;10.55;;;4.43;;
77872;SDS011;67068;52.116;4.440;2023-04-08T11:16:33;10.32;;;4.75;;
77872;SDS011;67068;52.116;4.440;2023-04-08T11:19:00;9.20;;;3.47;;
77872;SDS011;67068;52.116;4.440;2023-04-08T11:21:26;9.52;;;3.83;;
77872;SDS011;67068;52.116;4.440;2023-04-08T11:23:53;9.13;;;4.35;;
77872;SDS011;67068;52.116;4.440;2023-04-08T11:26:18;8.68;;;3.35;;
77872;SDS011;67068;52.116;4.440;2023-04-08T11:28:45;9.23;;;3.75;;
77872;SDS011;67068;52.116;4.440;2023-04-08T11:31:11;8.60;;;3.20;;
77872;SDS011;67068;52.116;4.440;2023-04-08T11:33:37;10.18;;;3.72;;
77872;SDS011;67068;52.116;4.440;2023-04-08T11:36:02;8.00;;;2.78;;
77872;SDS011;67068;52.116;4.440;2023-04-08T11:38:28;9.10;;;3.22;;
77872;SDS011;67068;52.116;4.440;2023-04-08T11:40:54;7.90;;;2.78;;
77872;SDS011;67068;52.116;4.440;2023-04-08T11:43:20;8.73;;;3.28;;
77872;SDS011;67068;52.116;4.440;2023-04-08T11:45:46;8.60;;;3.05;;
77872;SDS011;67068;52.116;4.440;2023-04-08T11:48:11;7.37;;;2.97;;
77872;SDS011;67068;52.116;4.440;2023-04-08T11:50:38;7.55;;;2.80;;
77872;SDS011;67068;52.116;4.440;2023-04-08T11:53:03;7.65;;;2.65;;
77872;SDS011;67068;52.116;4.440;2023-04-08T11:55:30;7.83;;;3.07;;
77872;SDS011;67068;52.116;4.440;2023-04-08T11:57:56;7.05;;;2.50;;
77872;SDS011;67068;52.116;4.440;2023-04-08T12:00:25;8.52;;;2.63;;
77872;SDS011;67068;52.116;4.440;2023-04-08T12:02:51;7.30;;;2.60;;
77872;SDS011;67068;52.116;4.440;2023-04-08T12:05:17;6.77;;;2.27;;
77872;SDS011;67068;52.116;4.440;2023-04-08T12:07:42;7.03;;;2.72;;
77872;SDS011;67068;52.116;4.440;2023-04-08T12:10:08;8.80;;;3.90;;
77872;SDS011;67068;52.116;4.440;2023-04-08T12:12:33;9.50;;;3.95;;
77872;SDS011;67068;52.116;4.440;2023-04-08T12:14:58;11.13;;;5.93;;
77872;SDS011;67068;52.116;4.440;2023-04-08T12:17:24;12.13;;;5.57;;
77872;SDS011;67068;52.116;4.440;2023-04-08T12:19:49;11.80;;;4.40;;
77872;SDS011;67068;52.116;4.440;2023-04-08T12:22:14;10.17;;;4.57;;
77872;SDS011;67068;52.116;4.440;2023-04-08T12:24:40;9.85;;;3.92;;
77872;SDS011;67068;52.116;4.440;2023-04-08T12:27:05;8.68;;;3.78;;
77872;SDS011;67068;52.116;4.440;2023-04-08T12:29:30;9.53;;;3.53;;
77872;SDS011;67068;52.116;4.440;2023-04-08T12:31:56;8.33;;;3.23;;
77872;SDS011;67068;52.116;4.440;2023-04-08T12:34:21;10.20;;;4.17;;
77872;SDS011;67068;52.116;4.440;2023-04-08T12:36:46;9.83;;;3.20;;
77872;SDS011;67068;52.116;4.440;2023-04-08T12:39:13;8.18;;;3.08;;
77872;SDS011;67068;52.116;4.440;2023-04-08T12:41:38;8.67;;;3.30;;
77872;SDS011;67068;52.116;4.440;2023-04-08T12:44:03;7.70;;;2.87;;
77872;SDS011;67068;52.116;4.440;2023-04-08T12:46:29;8.75;;;3.55;;
77872;SDS011;67068;52.116;4.440;2023-04-08T12:49:01;7.90;;;2.65;;
77872;SDS011;67068;52.116;4.440;2023-04-08T12:51:51;7.82;;;2.47;;
77872;SDS011;67068;52.116;4.440;2023-04-08T12:54:17;8.10;;;2.78;;
77872;SDS011;67068;52.116;4.440;2023-04-08T12:56:43;7.72;;;2.78;;
77872;SDS011;67068;52.116;4.440;2023-04-08T12:59:08;7.43;;;2.45;;
77872;SDS011;67068;52.116;4.440;2023-04-08T13:01:34;7.65;;;2.50;;
77872;SDS011;67068;52.116;4.440;2023-04-08T13:03:59;7.60;;;2.67;;
77872;SDS011;67068;52.116;4.440;2023-04-08T13:06:24;7.40;;;2.33;;
77872;SDS011;67068;52.116;4.440;2023-04-08T13:08:50;8.18;;;2.85;;
77872;SDS011;67068;52.116;4.440;2023-04-08T13:11:15;6.32;;;2.30;;
77872;SDS011;67068;52.116;4.440;2023-04-08T13:13:41;7.60;;;2.70;;
77872;SDS011;67068;52.116;4.440;2023-04-08T13:16:06;6.90;;;2.40;;
77872;SDS011;67068;52.116;4.440;2023-04-08T13:18:31;7.27;;;2.60;;
77872;SDS011;67068;52.116;4.440;2023-04-08T13:20:56;7.33;;;2.97;;
77872;SDS011;67068;52.116;4.440;2023-04-08T13:23:22;7.15;;;2.50;;
77872;SDS011;67068;52.116;4.440;2023-04-08T13:25:47;7.50;;;2.50;;
77872;SDS011;67068;52.116;4.440;2023-04-08T13:28:13;6.20;;;2.30;;
77872;SDS011;67068;52.116;4.440;2023-04-08T13:30:38;6.27;;;2.20;;
77872;SDS011;67068;52.116;4.440;2023-04-08T13:33:04;6.05;;;2.20;;
77872;SDS011;67068;52.116;4.440;2023-04-08T13:35:29;4.93;;;1.97;;
77872;SDS011;67068;52.116;4.440;2023-04-08T13:37:58;6.30;;;2.17;;
77872;SDS011;67068;52.116;4.440;2023-04-08T13:40:33;8.15;;;2.60;;
77872;SDS011;67068;52.116;4.440;2023-04-08T13:42:58;5.27;;;2.10;;
77872;SDS011;67068;52.116;4.440;2023-04-08T13:45:23;6.83;;;2.50;;
77872;SDS011;67068;52.116;4.440;2023-04-08T13:47:48;5.87;;;1.90;;
77872;SDS011;67068;52.116;4.440;2023-04-08T13:50:14;8.20;;;2.27;;
77872;SDS011;67068;52.116;4.440;2023-04-08T13:52:39;6.28;;;2.25;;
77872;SDS011;67068;52.116;4.440;2023-04-08T13:55:05;7.65;;;2.38;;
77872;SDS011;67068;52.116;4.440;2023-04-08T13:57:30;7.75;;;2.50;;
77872;SDS011;67068;52.116;4.440;2023-04-08T13:59:55;6.37;;;2.10;;
77872;SDS011;67068;52.116;4.440;2023-04-08T14:02:21;5.47;;;2.07;;
77872;SDS011;67068;52.116;4.440;2023-04-08T14:04:47;6.15;;;2.08;;
77872;SDS011;67068;52.116;4.440;2023-04-08T14:07:12;5.77;;;2.00;;
77872;SDS011;67068;52.116;4.440;2023-04-08T14:09:37;6.60;;;2.35;;
77872;SDS011;67068;52.116;4.440;2023-04-08T14:12:03;6.07;;;2.00;;
77872;SDS011;67068;52.116;4.440;2023-04-08T14:14:28;6.20;;;2.17;;
77872;SDS011;67068;52.116;4.440;2023-04-08T14:16:53;5.93;;;2.13;;
77872;SDS011;67068;52.116;4.440;2023-04-08T14:19:18;6.43;;;2.03;;
77872;SDS011;67068;52.116;4.440;2023-04-08T14:21:44;7.18;;;1.83;;
77872;SDS011;67068;52.116;4.440;2023-04-08T14:24:09;5.93;;;1.93;;
77872;SDS011;67068;52.116;4.440;2023-04-08T14:26:34;5.93;;;2.03;;
77872;SDS011;67068;52.116;4.440;2023-04-08T14:29:03;5.82;;;2.22;;
77872;SDS011;67068;52.116;4.440;2023-04-08T14:31:29;6.78;;;2.30;;
77872;SDS011;67068;52.116;4.440;2023-04-08T14:33:55;6.93;;;2.20;;
77872;SDS011;67068;52.116;4.440;2023-04-08T14:36:20;5.80;;;1.97;;
77872;SDS011;67068;52.116;4.440;2023-04-08T14:38:48;6.57;;;1.98;;
77872;SDS011;67068;52.116;4.440;2023-04-08T14:41:13;7.10;;;2.35;;
77872;SDS011;67068;52.116;4.440;2023-04-08T14:43:38;6.37;;;2.07;;
77872;SDS011;67068;52.116;4.440;2023-04-08T14:46:03;4.97;;;1.80;;
77872;SDS011;67068;52.116;4.440;2023-04-08T14:48:29;6.63;;;2.08;;
77872;SDS011;67068;52.116;4.440;2023-04-08T14:50:55;5.20;;;1.90;;
77872;SDS011;67068;52.116;4.440;2023-04-08T14:53:20;7.13;;;2.28;;
77872;SDS011;67068;52.116;4.440;2023-04-08T14:55:46;5.85;;;2.03;;